Terminal Aerodrome Forecast
Issued by NWS

Home | Current Version | Previous Version | Text Only | Print | Product List | Glossary On
Versions: 1 2 3 4 5 6 7 8 9 10 11 12 13 14 15 16 17 18 19 20 21 22
000
FTUS42 KFFC 240520
TAFPDK
TAF
KPDK 240520Z 2406/2506 10005KT P6SM SCT250
     FM240900 12006KT P6SM SCT020
     FM241600 10008KT P6SM SCT035
     FM242000 13010G16KT P6SM SCT050
     FM250100 13010KT P6SM FEW080=

USA.gov is the U.S. government's official web portal to all federal, state and local government web resources and services.